sensor_id;sensor_type;location;lat;lon;timestamp;pressure;altitude;pressure_sealevel;temperature;humidity
56671;BME280;42545;50.054;8.306;2022-12-29T00:00:16;99250.63;;;8.62;100.00
56671;BME280;42545;50.054;8.306;2022-12-29T00:02:42;99260.28;;;8.65;100.00
56671;BME280;42545;50.054;8.306;2022-12-29T00:05:10;99254.16;;;8.66;100.00
56671;BME280;42545;50.054;8.306;2022-12-29T00:07:37;99241.94;;;8.70;100.00
56671;BME280;42545;50.054;8.306;2022-12-29T00:10:06;99248.13;;;8.75;100.00
56671;BME280;42545;50.054;8.306;2022-12-29T00:12:33;99247.28;;;8.79;100.00
56671;BME280;42545;50.054;8.306;2022-12-29T00:15:14;99244.72;;;8.85;100.00
56671;BME280;42545;50.054;8.306;2022-12-29T00:17:58;99238.63;;;8.91;100.00
56671;BME280;42545;50.054;8.306;2022-12-29T00:20:25;99253.59;;;8.93;100.00
56671;BME280;42545;50.054;8.306;2022-12-29T00:23:09;99248.34;;;8.98;100.00
56671;BME280;42545;50.054;8.306;2022-12-29T00:25:55;99237.88;;;9.01;100.00
56671;BME280;42545;50.054;8.306;2022-12-29T00:28:39;99244.03;;;9.03;100.00
56671;BME280;42545;50.054;8.306;2022-12-29T00:31:24;99251.06;;;9.07;100.00
56671;BME280;42545;50.054;8.306;2022-12-29T00:34:10;99248.44;;;9.07;100.00
56671;BME280;42545;50.054;8.306;2022-12-29T00:36:54;99246.72;;;9.09;100.00
56671;BME280;42545;50.054;8.306;2022-12-29T00:39:22;99247.63;;;9.11;100.00
56671;BME280;42545;50.054;8.306;2022-12-29T00:42:09;99253.78;;;9.13;100.00
56671;BME280;42545;50.054;8.306;2022-12-29T00:44:53;99246.75;;;9.12;100.00
56671;BME280;42545;50.054;8.306;2022-12-29T00:47:20;99243.25;;;9.13;100.00
56671;BME280;42545;50.054;8.306;2022-12-29T00:49:47;99237.09;;;9.14;100.00
56671;BME280;42545;50.054;8.306;2022-12-29T00:52:13;99243.28;;;9.15;100.00
56671;BME280;42545;50.054;8.306;2022-12-29T00:54:41;99233.59;;;9.14;100.00
56671;BME280;42545;50.054;8.306;2022-12-29T00:57:12;99240.63;;;9.15;100.00
56671;BME280;42545;50.054;8.306;2022-12-29T00:59:40;99234.47;;;9.14;100.00
56671;BME280;42545;50.054;8.306;2022-12-29T01:02:08;99242.38;;;9.14;100.00
56671;BME280;42545;50.054;8.306;2022-12-29T01:04:35;99249.38;;;9.12;100.00
56671;BME280;42545;50.054;8.306;2022-12-29T01:07:02;99237.97;;;9.12;100.00
56671;BME280;42545;50.054;8.306;2022-12-29T01:09:29;99237.09;;;9.11;100.00
56671;BME280;42545;50.054;8.306;2022-12-29T01:12:14;99240.59;;;9.12;100.00
56671;BME280;42545;50.054;8.306;2022-12-29T01:14:41;99224.81;;;9.12;100.00
56671;BME280;42545;50.054;8.306;2022-12-29T01:17:07;99227.41;;;9.10;100.00
56671;BME280;42545;50.054;8.306;2022-12-29T01:19:34;99230.06;;;9.10;100.00
56671;BME280;42545;50.054;8.306;2022-12-29T01:22:01;99230.94;;;9.09;100.00
56671;BME280;42545;50.054;8.306;2022-12-29T01:24:28;99237.91;;;9.07;100.00
56671;BME280;42545;50.054;8.306;2022-12-29T01:26:54;99237.03;;;9.07;100.00
56671;BME280;42545;50.054;8.306;2022-12-29T01:29:23;99230.88;;;9.04;100.00
56671;BME280;42545;50.054;8.306;2022-12-29T01:31:51;99236.13;;;9.03;100.00
56671;BME280;42545;50.054;8.306;2022-12-29T01:34:17;99231.75;;;9.02;100.00
56671;BME280;42545;50.054;8.306;2022-12-29T01:36:44;99236.09;;;9.01;100.00
56671;BME280;42545;50.054;8.306;2022-12-29T01:39:11;99231.75;;;9.02;100.00
56671;BME280;42545;50.054;8.306;2022-12-29T01:41:37;99232.59;;;9.01;100.00
56671;BME280;42545;50.054;8.306;2022-12-29T01:47:07;99235.22;;;9.01;100.00
56671;BME280;42545;50.054;8.306;2022-12-29T01:49:34;99221.19;;;8.99;100.00
56671;BME280;42545;50.054;8.306;2022-12-29T01:52:03;99223.81;;;8.99;100.00
56671;BME280;42545;50.054;8.306;2022-12-29T01:54:34;99224.69;;;8.99;100.00
56671;BME280;42545;50.054;8.306;2022-12-29T01:57:05;99232.56;;;8.98;100.00
56671;BME280;42545;50.054;8.306;2022-12-29T01:59:34;99236.09;;;8.98;100.00
56671;BME280;42545;50.054;8.306;2022-12-29T02:02:02;99229.94;;;8.99;100.00
56671;BME280;42545;50.054;8.306;2022-12-29T02:04:32;99239.66;;;9.02;100.00
56671;BME280;42545;50.054;8.306;2022-12-29T02:07:02;99227.34;;;9.02;100.00
56671;BME280;42545;50.054;8.306;2022-12-29T02:09:30;99230.88;;;9.04;100.00
56671;BME280;42545;50.054;8.306;2022-12-29T02:11:58;99223.88;;;9.05;100.00
56671;BME280;42545;50.054;8.306;2022-12-29T02:14:26;99230.91;;;9.08;100.00
56671;BME280;42545;50.054;8.306;2022-12-29T02:17:01;99212.50;;;9.08;100.00
56671;BME280;42545;50.054;8.306;2022-12-29T02:20:04;99216.84;;;9.07;100.00
56671;BME280;42545;50.054;8.306;2022-12-29T02:22:47;99209.84;;;9.04;100.00
56671;BME280;42545;50.054;8.306;2022-12-29T02:25:33;99207.19;;;9.04;100.00
56671;BME280;42545;50.054;8.306;2022-12-29T02:28:23;99199.28;;;9.03;100.00
56671;BME280;42545;50.054;8.306;2022-12-29T02:31:10;99185.25;;;9.01;100.00
56671;BME280;42545;50.054;8.306;2022-12-29T02:33:49;99189.63;;;9.00;100.00
56671;BME280;42545;50.054;8.306;2022-12-29T02:36:25;99174.72;;;9.01;100.00
56671;BME280;42545;50.054;8.306;2022-12-29T02:39:04;99170.31;;;9.01;100.00
56671;BME280;42545;50.054;8.306;2022-12-29T02:41:38;99162.44;;;9.01;100.00
56671;BME280;42545;50.054;8.306;2022-12-29T02:44:13;99163.34;;;9.05;100.00
56671;BME280;42545;50.054;8.306;2022-12-29T02:46:46;99165.97;;;9.05;100.00
56671;BME280;42545;50.054;8.306;2022-12-29T02:49:18;99166.88;;;9.06;100.00
56671;BME280;42545;50.054;8.306;2022-12-29T02:51:52;99158.97;;;9.09;100.00
56671;BME280;42545;50.054;8.306;2022-12-29T02:54:24;99145.84;;;9.12;100.00
56671;BME280;42545;50.054;8.306;2022-12-29T02:57:11;99144.13;;;9.14;100.00
56671;BME280;42545;50.054;8.306;2022-12-29T02:59:39;99149.41;;;9.15;100.00
56671;BME280;42545;50.054;8.306;2022-12-29T03:02:18;99142.38;;;9.17;100.00
56671;BME280;42545;50.054;8.306;2022-12-29T03:07:48;99140.66;;;9.21;100.00
56671;BME280;42545;50.054;8.306;2022-12-29T03:10:32;99129.28;;;9.22;100.00
56671;BME280;42545;50.054;8.306;2022-12-29T03:13:04;99127.50;;;9.21;100.00
56671;BME280;42545;50.054;8.306;2022-12-29T03:16:00;99124.00;;;9.22;100.00
56671;BME280;42545;50.054;8.306;2022-12-29T03:18:39;99127.53;;;9.24;100.00
56671;BME280;42545;50.054;8.306;2022-12-29T03:21:11;99108.22;;;9.22;100.00
56671;BME280;42545;50.054;8.306;2022-12-29T03:23:41;99114.34;;;9.22;100.00
56671;BME280;42545;50.054;8.306;2022-12-29T03:26:14;99113.47;;;9.25;100.00
56671;BME280;42545;50.054;8.306;2022-12-29T03:28:45;99111.75;;;9.26;100.00
56671;BME280;42545;50.054;8.306;2022-12-29T03:31:14;99117.03;;;9.30;100.00
56671;BME280;42545;50.054;8.306;2022-12-29T03:33:45;99098.59;;;9.29;100.00
56671;BME280;42545;50.054;8.306;2022-12-29T03:36:18;99112.66;;;9.32;100.00
56671;BME280;42545;50.054;8.306;2022-12-29T03:38:50;99106.53;;;9.35;100.00
56671;BME280;42545;50.054;8.306;2022-12-29T03:41:26;99101.28;;;9.36;100.00
56671;BME280;42545;50.054;8.306;2022-12-29T03:43:55;99109.16;;;9.38;100.00
56671;BME280;42545;50.054;8.306;2022-12-29T03:46:21;99108.28;;;9.36;100.00
56671;BME280;42545;50.054;8.306;2022-12-29T03:48:49;99104.81;;;9.43;100.00
56671;BME280;42545;50.054;8.306;2022-12-29T03:51:16;99092.56;;;9.47;100.00
56671;BME280;42545;50.054;8.306;2022-12-29T03:53:43;99098.69;;;9.49;100.00
56671;BME280;42545;50.054;8.306;2022-12-29T03:56:09;99104.88;;;9.52;100.00
56671;BME280;42545;50.054;8.306;2022-12-29T03:58:36;99095.22;;;9.56;100.00
56671;BME280;42545;50.054;8.306;2022-12-29T04:01:02;99107.56;;;9.58;100.00
56671;BME280;42545;50.054;8.306;2022-12-29T04:03:29;99091.75;;;9.61;100.00
56671;BME280;42545;50.054;8.306;2022-12-29T04:05:57;99092.63;;;9.63;99.96
56671;BME280;42545;50.054;8.306;2022-12-29T04:08:24;99091.78;;;9.65;99.56
56671;BME280;42545;50.054;8.306;2022-12-29T04:10:51;99094.44;;;9.68;99.34
56671;BME280;42545;50.054;8.306;2022-12-29T04:13:17;99099.72;;;9.69;99.19
56671;BME280;42545;50.054;8.306;2022-12-29T04:15:44;99097.06;;;9.69;99.49
56671;BME280;42545;50.054;8.306;2022-12-29T04:18:11;99085.63;;;9.69;99.36
56671;BME280;42545;50.054;8.306;2022-12-29T04:20:38;99089.16;;;9.71;99.29
56671;BME280;42545;50.054;8.306;2022-12-29T04:23:24;99087.41;;;9.70;99.26
56671;BME280;42545;50.054;8.306;2022-12-29T04:25:50;99086.50;;;9.71;98.65
56671;BME280;42545;50.054;8.306;2022-12-29T04:28:17;99097.06;;;9.71;98.74
56671;BME280;42545;50.054;8.306;2022-12-29T04:30:45;99099.69;;;9.71;98.66
56671;BME280;42545;50.054;8.306;2022-12-29T04:33:11;99102.34;;;9.72;98.58
56671;BME280;42545;50.054;8.306;2022-12-29T04:35:38;99089.16;;;9.72;97.93
56671;BME280;42545;50.054;8.306;2022-12-29T04:38:05;99095.31;;;9.73;97.91
56671;BME280;42545;50.054;8.306;2022-12-29T04:40:33;99079.50;;;9.74;97.43
56671;BME280;42545;50.054;8.306;2022-12-29T04:43:00;99090.94;;;9.78;96.87
56671;BME280;42545;50.054;8.306;2022-12-29T04:45:27;99079.53;;;9.84;96.05
56671;BME280;42545;50.054;8.306;2022-12-29T04:47:53;99089.22;;;9.86;95.69
56671;BME280;42545;50.054;8.306;2022-12-29T04:50:20;99092.75;;;9.88;95.35
56671;BME280;42545;50.054;8.306;2022-12-29T04:52:47;99100.66;;;9.90;95.29
56671;BME280;42545;50.054;8.306;2022-12-29T04:55:14;99079.59;;;9.91;95.25
56671;BME280;42545;50.054;8.306;2022-12-29T04:57:42;99092.75;;;9.93;94.93
56671;BME280;42545;50.054;8.306;2022-12-29T05:00:10;99091.03;;;9.95;95.10
56671;BME280;42545;50.054;8.306;2022-12-29T05:02:39;99100.66;;;9.94;95.41
56671;BME280;42545;50.054;8.306;2022-12-29T05:05:07;99089.25;;;9.92;95.65
56671;BME280;42545;50.054;8.306;2022-12-29T05:07:34;99097.13;;;9.91;96.00
56671;BME280;42545;50.054;8.306;2022-12-29T05:10:00;99095.38;;;9.88;97.03
56671;BME280;42545;50.054;8.306;2022-12-29T05:12:29;99107.66;;;9.86;97.27
56671;BME280;42545;50.054;8.306;2022-12-29T05:14:58;99116.44;;;9.84;98.35
56671;BME280;42545;50.054;8.306;2022-12-29T05:17:25;99114.66;;;9.81;99.56
56671;BME280;42545;50.054;8.306;2022-12-29T05:19:52;99110.25;;;9.74;100.00
56671;BME280;42545;50.054;8.306;2022-12-29T05:22:19;99106.72;;;9.66;100.00
56671;BME280;42545;50.054;8.306;2022-12-29T05:24:46;99101.41;;;9.61;100.00
56671;BME280;42545;50.054;8.306;2022-12-29T05:27:13;99103.13;;;9.54;100.00
56671;BME280;42545;50.054;8.306;2022-12-29T05:29:39;99096.97;;;9.49;100.00
56671;BME280;42545;50.054;8.306;2022-12-29T05:32:08;99091.66;;;9.45;100.00
56671;BME280;42545;50.054;8.306;2022-12-29T05:34:34;99095.16;;;9.40;100.00
56671;BME280;42545;50.054;8.306;2022-12-29T05:37:01;99086.38;;;9.38;100.00
56671;BME280;42545;50.054;8.306;2022-12-29T05:39:28;99089.00;;;9.37;100.00
56671;BME280;42545;50.054;8.306;2022-12-29T05:41:55;99087.22;;;9.36;100.00
56671;BME280;42545;50.054;8.306;2022-12-29T05:44:22;99091.63;;;9.35;100.00
56671;BME280;42545;50.054;8.306;2022-12-29T05:46:48;99093.38;;;9.35;100.00
56671;BME280;42545;50.054;8.306;2022-12-29T05:49:17;99081.06;;;9.34;100.00
56671;BME280;42545;50.054;8.306;2022-12-29T05:51:44;99088.97;;;9.32;100.00
56671;BME280;42545;50.054;8.306;2022-12-29T05:54:11;99081.06;;;9.32;100.00
56671;BME280;42545;50.054;8.306;2022-12-29T05:56:38;99083.69;;;9.32;100.00
56671;BME280;42545;50.054;8.306;2022-12-29T05:59:04;99086.31;;;9.32;100.00
56671;BME280;42545;50.054;8.306;2022-12-29T06:01:33;99090.72;;;9.33;100.00
56671;BME280;42545;50.054;8.306;2022-12-29T06:03:59;99088.97;;;9.35;100.00
56671;BME280;42545;50.054;8.306;2022-12-29T06:06:28;99096.00;;;9.38;100.00
56671;BME280;42545;50.054;8.306;2022-12-29T06:08:55;99092.53;;;9.40;100.00
56671;BME280;42545;50.054;8.306;2022-12-29T06:11:22;99094.28;;;9.43;100.00
56671;BME280;42545;50.054;8.306;2022-12-29T06:13:48;99094.31;;;9.46;100.00
56671;BME280;42545;50.054;8.306;2022-12-29T06:16:15;99096.97;;;9.48;100.00
56671;BME280;42545;50.054;8.306;2022-12-29T06:18:42;99088.19;;;9.52;100.00
56671;BME280;42545;50.054;8.306;2022-12-29T06:21:09;99103.16;;;9.57;99.07
56671;BME280;42545;50.054;8.306;2022-12-29T06:23:38;99087.38;;;9.60;99.56
56671;BME280;42545;50.054;8.306;2022-12-29T06:26:05;99093.53;;;9.64;99.55
56671;BME280;42545;50.054;8.306;2022-12-29T06:28:32;99106.69;;;9.67;99.74
56671;BME280;42545;50.054;8.306;2022-12-29T06:30:59;99092.69;;;9.70;99.48
56671;BME280;42545;50.054;8.306;2022-12-29T06:33:28;99084.75;;;9.73;99.33
56671;BME280;42545;50.054;8.306;2022-12-29T06:35:54;99108.47;;;9.74;98.73
56671;BME280;42545;50.054;8.306;2022-12-29T06:38:21;99102.34;;;9.80;98.74
56671;BME280;42545;50.054;8.306;2022-12-29T06:40:52;99098.88;;;9.82;98.75
56671;BME280;42545;50.054;8.306;2022-12-29T06:43:19;99097.97;;;9.79;99.54
56671;BME280;42545;50.054;8.306;2022-12-29T06:45:45;99097.97;;;9.77;100.00
56671;BME280;42545;50.054;8.306;2022-12-29T06:48:13;99092.69;;;9.74;100.00
56671;BME280;42545;50.054;8.306;2022-12-29T06:50:40;99098.81;;;9.72;100.00
56671;BME280;42545;50.054;8.306;2022-12-29T06:53:07;99100.56;;;9.68;100.00
56671;BME280;42545;50.054;8.306;2022-12-29T06:55:33;99098.78;;;9.62;100.00
56671;BME280;42545;50.054;8.306;2022-12-29T06:58:01;99094.38;;;9.58;100.00
56671;BME280;42545;50.054;8.306;2022-12-29T07:00:28;99094.34;;;9.52;100.00
56671;BME280;42545;50.054;8.306;2022-12-29T07:02:55;99089.06;;;9.51;100.00
56671;BME280;42545;50.054;8.306;2022-12-29T07:05:23;99085.53;;;9.49;100.00
56671;BME280;42545;50.054;8.306;2022-12-29T07:07:50;99085.53;;;9.47;100.00
56671;BME280;42545;50.054;8.306;2022-12-29T07:10:17;99091.72;;;9.49;100.00
56671;BME280;42545;50.054;8.306;2022-12-29T07:12:44;99084.66;;;9.48;100.00
56671;BME280;42545;50.054;8.306;2022-12-29T07:15:12;99089.97;;;9.51;100.00
56671;BME280;42545;50.054;8.306;2022-12-29T07:17:39;99088.22;;;9.53;99.51
56671;BME280;42545;50.054;8.306;2022-12-29T07:20:07;99089.13;;;9.58;98.90
56671;BME280;42545;50.054;8.306;2022-12-29T07:22:34;99089.09;;;9.60;97.81
56671;BME280;42545;50.054;8.306;2022-12-29T07:25:01;99090.03;;;9.67;97.45
56671;BME280;42545;50.054;8.306;2022-12-29T07:27:28;99103.22;;;9.74;96.13
56671;BME280;42545;50.054;8.306;2022-12-29T07:29:55;99095.34;;;9.77;95.63
56671;BME280;42545;50.054;8.306;2022-12-29T07:32:24;99105.88;;;9.84;94.78
56671;BME280;42545;50.054;8.306;2022-12-29T07:34:50;99091.88;;;9.86;94.65
56671;BME280;42545;50.054;8.306;2022-12-29T07:37:17;99093.59;;;9.87;94.55
56671;BME280;42545;50.054;8.306;2022-12-29T07:39:45;99093.59;;;9.87;94.72
56671;BME280;42545;50.054;8.306;2022-12-29T07:42:12;99102.38;;;9.89;94.39
56671;BME280;42545;50.054;8.306;2022-12-29T07:44:39;99104.16;;;9.90;93.94
56671;BME280;42545;50.054;8.306;2022-12-29T07:47:05;99094.50;;;9.92;94.02
56671;BME280;42545;50.054;8.306;2022-12-29T07:49:34;99114.75;;;9.95;94.34
56671;BME280;42545;50.054;8.306;2022-12-29T07:52:01;99125.25;;;9.96;93.72
56671;BME280;42545;50.054;8.306;2022-12-29T07:54:27;99121.75;;;9.96;94.50
56671;BME280;42545;50.054;8.306;2022-12-29T07:56:54;99115.59;;;9.94;94.37
56671;BME280;42545;50.054;8.306;2022-12-29T07:59:22;99120.88;;;9.97;94.44
56671;BME280;42545;50.054;8.306;2022-12-29T08:01:49;99134.06;;;9.97;94.59
56671;BME280;42545;50.054;8.306;2022-12-29T08:04:16;99127.91;;;9.98;94.72
56671;BME280;42545;50.054;8.306;2022-12-29T08:06:44;99127.00;;;9.94;95.11
56671;BME280;42545;50.054;8.306;2022-12-29T08:09:12;99139.31;;;9.95;95.33
56671;BME280;42545;50.054;8.306;2022-12-29T08:11:38;99141.09;;;9.95;95.05
56671;BME280;42545;50.054;8.306;2022-12-29T08:14:05;99138.44;;;9.92;95.31
56671;BME280;42545;50.054;8.306;2022-12-29T08:16:32;99142.81;;;9.93;95.78
56671;BME280;42545;50.054;8.306;2022-12-29T08:18:58;99136.66;;;9.92;96.02
56671;BME280;42545;50.054;8.306;2022-12-29T08:21:26;99130.50;;;9.90;95.84
56671;BME280;42545;50.054;8.306;2022-12-29T08:23:55;99141.06;;;9.90;96.40
56671;BME280;42545;50.054;8.306;2022-12-29T08:26:22;99146.31;;;9.89;96.60
56671;BME280;42545;50.054;8.306;2022-12-29T08:28:48;99148.06;;;9.88;96.94
56671;BME280;42545;50.054;8.306;2022-12-29T08:31:15;99141.91;;;9.83;97.72
56671;BME280;42545;50.054;8.306;2022-12-29T08:33:42;99146.31;;;9.82;97.84
56671;BME280;42545;50.054;8.306;2022-12-29T08:36:09;99145.41;;;9.84;98.60
56671;BME280;42545;50.054;8.306;2022-12-29T08:38:36;99145.41;;;9.79;98.80
56671;BME280;42545;50.054;8.306;2022-12-29T08:41:04;99153.28;;;9.77;99.40
56671;BME280;42545;50.054;8.306;2022-12-29T08:43:30;99155.06;;;9.77;100.00
56671;BME280;42545;50.054;8.306;2022-12-29T08:45:57;99166.44;;;9.73;100.00
56671;BME280;42545;50.054;8.306;2022-12-29T08:48:25;99163.75;;;9.63;100.00
56671;BME280;42545;50.054;8.306;2022-12-29T08:50:52;99163.69;;;9.54;100.00
56671;BME280;42545;50.054;8.306;2022-12-29T08:53:19;99166.25;;;9.43;100.00
56671;BME280;42545;50.054;8.306;2022-12-29T08:55:46;99167.97;;;9.37;100.00
56671;BME280;42545;50.054;8.306;2022-12-29T08:58:15;99167.94;;;9.29;100.00
56671;BME280;42545;50.054;8.306;2022-12-29T09:00:43;99168.75;;;9.23;100.00
56671;BME280;42545;50.054;8.306;2022-12-29T09:03:09;99174.00;;;9.19;100.00
56671;BME280;42545;50.054;8.306;2022-12-29T09:05:37;99183.59;;;9.14;100.00
56671;BME280;42545;50.054;8.306;2022-12-29T09:08:04;99185.34;;;9.12;100.00
56671;BME280;42545;50.054;8.306;2022-12-29T09:10:31;99194.09;;;9.09;100.00
56671;BME280;42545;50.054;8.306;2022-12-29T09:12:57;99190.53;;;9.04;100.00
56671;BME280;42545;50.054;8.306;2022-12-29T09:15:26;99191.41;;;9.04;100.00
56671;BME280;42545;50.054;8.306;2022-12-29T09:17:52;99197.56;;;9.03;100.00
56671;BME280;42545;50.054;8.306;2022-12-29T09:20:20;99197.53;;;9.02;100.00
56671;BME280;42545;50.054;8.306;2022-12-29T09:22:48;99204.53;;;9.00;100.00
56671;BME280;42545;50.054;8.306;2022-12-29T09:25:15;99204.53;;;8.98;100.00
56671;BME280;42545;50.054;8.306;2022-12-29T09:27:42;99218.53;;;8.97;100.00
56671;BME280;42545;50.054;8.306;2022-12-29T09:30:11;99196.56;;;8.92;100.00
56671;BME280;42545;50.054;8.306;2022-12-29T09:32:41;99209.75;;;8.95;100.00
56671;BME280;42545;50.054;8.306;2022-12-29T09:35:08;99211.50;;;8.95;100.00
56671;BME280;42545;50.054;8.306;2022-12-29T09:37:35;99212.38;;;8.95;100.00
56671;BME280;42545;50.054;8.306;2022-12-29T09:40:04;99206.25;;;8.95;100.00
56671;BME280;42545;50.054;8.306;2022-12-29T09:42:35;99210.59;;;8.94;100.00
56671;BME280;42545;50.054;8.306;2022-12-29T09:45:12;99213.22;;;8.91;100.00
56671;BME280;42545;50.054;8.306;2022-12-29T09:47:43;99216.75;;;8.93;100.00
56671;BME280;42545;50.054;8.306;2022-12-29T09:50:19;99213.25;;;8.93;100.00
56671;BME280;42545;50.054;8.306;2022-12-29T09:52:52;99207.94;;;8.90;100.00
56671;BME280;42545;50.054;8.306;2022-12-29T09:55:23;99214.97;;;8.89;100.00
56671;BME280;42545;50.054;8.306;2022-12-29T09:57:54;99218.44;;;8.87;100.00
56671;BME280;42545;50.054;8.306;2022-12-29T10:00:27;99203.50;;;8.82;100.00
56671;BME280;42545;50.054;8.306;2022-12-29T10:03:05;99206.09;;;8.81;100.00
56671;BME280;42545;50.054;8.306;2022-12-29T10:05:45;99203.44;;;8.76;100.00
56671;BME280;42545;50.054;8.306;2022-12-29T10:08:25;99189.34;;;8.71;100.00
56671;BME280;42545;50.054;8.306;2022-12-29T10:10:59;99186.69;;;8.68;100.00
56671;BME280;42545;50.054;8.306;2022-12-29T10:13:34;99182.28;;;8.65;100.00
56671;BME280;42545;50.054;8.306;2022-12-29T10:16:09;99185.78;;;8.66;100.00
56671;BME280;42545;50.054;8.306;2022-12-29T10:18:48;99198.94;;;8.66;100.00
56671;BME280;42545;50.054;8.306;2022-12-29T10:21:28;99191.94;;;8.68;100.00
56671;BME280;42545;50.054;8.306;2022-12-29T10:24:00;99208.59;;;8.69;100.00
56671;BME280;42545;50.054;8.306;2022-12-29T10:26:33;99213.00;;;8.68;100.00
56671;BME280;42545;50.054;8.306;2022-12-29T10:29:04;99206.84;;;8.66;100.00
56671;BME280;42545;50.054;8.306;2022-12-29T10:31:35;99210.31;;;8.62;100.00
56671;BME280;42545;50.054;8.306;2022-12-29T10:34:13;99215.59;;;8.63;100.00
56671;BME280;42545;50.054;8.306;2022-12-29T10:36:44;99205.84;;;8.58;100.00
56671;BME280;42545;50.054;8.306;2022-12-29T10:39:19;99210.25;;;8.59;100.00
56671;BME280;42545;50.054;8.306;2022-12-29T10:41:51;99214.66;;;8.58;100.00
56671;BME280;42545;50.054;8.306;2022-12-29T10:44:20;99219.13;;;8.65;100.00
56671;BME280;42545;50.054;8.306;2022-12-29T10:46:55;99208.63;;;8.70;100.00
56671;BME280;42545;50.054;8.306;2022-12-29T10:49:26;99212.22;;;8.77;100.00
56671;BME280;42545;50.054;8.306;2022-12-29T10:51:57;99199.28;;;9.01;100.00
56671;BME280;42545;50.054;8.306;2022-12-29T10:54:26;99202.13;;;9.31;100.00
56671;BME280;42545;50.054;8.306;2022-12-29T10:56:56;99208.44;;;9.50;100.00
56671;BME280;42545;50.054;8.306;2022-12-29T10:59:29;99202.44;;;9.69;100.00
56671;BME280;42545;50.054;8.306;2022-12-29T11:02:04;99205.16;;;9.91;100.00
56671;BME280;42545;50.054;8.306;2022-12-29T11:04:49;99223.72;;;10.08;99.98
56671;BME280;42545;50.054;8.306;2022-12-29T11:07:21;99214.19;;;10.31;98.47
56671;BME280;42545;50.054;8.306;2022-12-29T11:09:48;99226.66;;;10.92;98.12
56671;BME280;42545;50.054;8.306;2022-12-29T11:12:21;99228.44;;;11.18;94.09
56671;BME280;42545;50.054;8.306;2022-12-29T11:15:01;99227.56;;;11.14;92.32
56671;BME280;42545;50.054;8.306;2022-12-29T11:17:28;99236.38;;;11.13;93.05
56671;BME280;42545;50.054;8.306;2022-12-29T11:19:56;99227.56;;;11.13;92.56
56671;BME280;42545;50.054;8.306;2022-12-29T11:22:24;99231.94;;;11.09;92.41
56671;BME280;42545;50.054;8.306;2022-12-29T11:24:52;99222.28;;;11.27;92.14
56671;BME280;42545;50.054;8.306;2022-12-29T11:27:22;99214.31;;;11.73;88.29
56671;BME280;42545;50.054;8.306;2022-12-29T11:29:51;99227.53;;;11.74;88.61
56671;BME280;42545;50.054;8.306;2022-12-29T11:32:21;99232.78;;;12.02;87.65
56671;BME280;42545;50.054;8.306;2022-12-29T11:34:48;99226.59;;;12.11;85.66
56671;BME280;42545;50.054;8.306;2022-12-29T11:37:18;99208.16;;;11.96;82.38
56671;BME280;42545;50.054;8.306;2022-12-29T11:39:51;99231.03;;;12.07;83.64
56671;BME280;42545;50.054;8.306;2022-12-29T11:42:22;99230.16;;;12.01;83.94
56671;BME280;42545;50.054;8.306;2022-12-29T11:44:51;99225.78;;;11.92;84.31
56671;BME280;42545;50.054;8.306;2022-12-29T11:47:25;99225.78;;;11.78;84.79
56671;BME280;42545;50.054;8.306;2022-12-29T11:49:55;99230.19;;;11.76;85.48
56671;BME280;42545;50.054;8.306;2022-12-29T11:52:28;99232.84;;;11.78;86.29
56671;BME280;42545;50.054;8.306;2022-12-29T11:54:59;99229.31;;;11.72;87.00
56671;BME280;42545;50.054;8.306;2022-12-29T11:57:27;99220.47;;;11.84;86.29
56671;BME280;42545;50.054;8.306;2022-12-29T11:59:55;99227.53;;;11.91;83.95
56671;BME280;42545;50.054;8.306;2022-12-29T12:02:30;99228.38;;;12.10;85.08
56671;BME280;42545;50.054;8.306;2022-12-29T12:05:05;99230.09;;;12.24;85.03
56671;BME280;42545;50.054;8.306;2022-12-29T12:07:38;99224.78;;;12.27;82.12
56671;BME280;42545;50.054;8.306;2022-12-29T12:10:12;99234.38;;;12.48;83.15
56671;BME280;42545;50.054;8.306;2022-12-29T12:12:46;99228.28;;;12.38;81.61
56671;BME280;42545;50.054;8.306;2022-12-29T12:15:19;99213.38;;;12.13;81.60
56671;BME280;42545;50.054;8.306;2022-12-29T12:17:51;99206.38;;;11.85;81.83
56671;BME280;42545;50.054;8.306;2022-12-29T12:20:22;99238.13;;;11.79;83.05
56671;BME280;42545;50.054;8.306;2022-12-29T12:23:00;99229.31;;;11.51;82.86
56671;BME280;42545;50.054;8.306;2022-12-29T12:25:31;99232.00;;;11.35;81.80
56671;BME280;42545;50.054;8.306;2022-12-29T12:28:05;99224.94;;;11.14;80.85
56671;BME280;42545;50.054;8.306;2022-12-29T12:30:38;99237.22;;;11.09;82.93
56671;BME280;42545;50.054;8.306;2022-12-29T12:33:10;99222.28;;;11.04;83.34
56671;BME280;42545;50.054;8.306;2022-12-29T12:35:47;99222.28;;;10.98;84.47
56671;BME280;42545;50.054;8.306;2022-12-29T12:38:28;99218.75;;;10.91;83.86
56671;BME280;42545;50.054;8.306;2022-12-29T12:41:06;99216.97;;;10.84;83.83
56671;BME280;42545;50.054;8.306;2022-12-29T12:43:41;99210.81;;;10.77;85.49
56671;BME280;42545;50.054;8.306;2022-12-29T12:46:23;99223.97;;;10.71;85.63
56671;BME280;42545;50.054;8.306;2022-12-29T12:49:02;99215.19;;;10.64;85.70
56671;BME280;42545;50.054;8.306;2022-12-29T12:51:42;99217.78;;;10.58;85.80
56671;BME280;42545;50.054;8.306;2022-12-29T12:54:30;99216.88;;;10.53;86.34
56671;BME280;42545;50.054;8.306;2022-12-29T12:57:10;99219.53;;;10.54;87.12
56671;BME280;42545;50.054;8.306;2022-12-29T12:59:49;99215.13;;;10.55;87.81
56671;BME280;42545;50.054;8.306;2022-12-29T13:02:31;99204.66;;;10.73;89.79
56671;BME280;42545;50.054;8.306;2022-12-29T13:05:13;99202.03;;;11.09;88.44
56671;BME280;42545;50.054;8.306;2022-12-29T13:07:50;99197.63;;;11.37;86.27
56671;BME280;42545;50.054;8.306;2022-12-29T13:10:29;99165.94;;;11.51;83.56
56671;BME280;42545;50.054;8.306;2022-12-29T13:13:24;99189.66;;;11.80;84.54
56671;BME280;42545;50.054;8.306;2022-12-29T13:15:56;99190.53;;;11.90;84.34
56671;BME280;42545;50.054;8.306;2022-12-29T13:18:34;99197.56;;;12.03;84.31
56671;BME280;42545;50.054;8.306;2022-12-29T13:21:07;99186.06;;;12.09;81.91
56671;BME280;42545;50.054;8.306;2022-12-29T13:23:41;99183.38;;;12.18;82.39
56671;BME280;42545;50.054;8.306;2022-12-29T13:26:14;99185.16;;;12.10;82.10